Prospect Creek, Prospect Cree, AK

4:00 PM AKDT on July 27, 2016 (GMT -0800)
Bettles | | Change Station

Elev 643 ft 66.91 °N, 151.53 °W | Updated 7 minutes ago

Scattered Clouds
Scattered Clouds
74 °F
Feels Like 74 °F
N
9
Wind Variable Wind from SSW
Gusts 22 mph

Today
High -- | Low -- °F
--% Chance of Precip.
Yesterday
High -- | Low -- °F
Precip. -- in
Pressure 29.75 in
Visibility 10.0 miles
Clouds Few 3300 ft
Scattered Clouds 6000 ft
Scattered Clouds 22000 ft
Dew Point 43 °F
Humidity 33%
Rainfall 0.00 in
Snow Depth Not available.
4:18 AM 11:55 PM
Last Quarter, 38% visible
METAR PABT 272353Z 20008G19KT 10SM FEW033 SCT060 SCT220 23/06 A2973 RMK AO2 SLP073 60000 T02330061 10233 20178 58007
Pressure 29.75 in
Visibility 10.0 miles
Clouds Few 3300 ft
Scattered Clouds 6000 ft
Scattered Clouds 22000 ft
Dew Point 43 °F
Humidity 33%
Rainfall 0.00 in
Snow Depth Not available.
4:18 AM 11:55 PM
Last Quarter, 38% visible
METAR PABT 272353Z 20008G19KT 10SM FEW033 SCT060 SCT220 23/06 A2973 RMK AO2 SLP073 60000 T02330061 10233 20178 58007

10-Day Weather Forecast

Almanac

Astronomy

Jul. 27, 2016 Rise Set
Actual Time
Civil Twilight
Nautical Twilight
Astronomical Twilight
Moon
Length of Visible Light
Length of Day
Tomorrow will be .
, % of the Moon is Illuminated

Today's Extremes

State Highs State Lows

Community

WunderPhotos

Upload Photos

1,927,958 photos uploaded!

WunderBlog® & News

Nearby

Air Quality

  Air Quality AQ Index Pollutant
Not available.

Snow Depth

Station Depth Elevation

Earthquake Activity

City Distance Mag. Time & Date
Minimum magnitude displayed is 2.5.

Coastal Water Temperatures

Place Temperature

Stations

Nearby Weather Stations

Station Location Temp. Windchill Dew Point Humidity Wind Precip. Elev Updated Type
                   

Watches & Warnings

There are currently no watches in effect.